createdAt,value
2022-12-31T00:04:03.675Z,4.806020066889632
2022-12-31T00:11:20.714Z,4.454849498327759
2022-12-31T00:17:41.207Z,3.923076923076923
2022-12-31T00:24:02.234Z,4.083612040133779
2022-12-31T00:30:21.556Z,4.170568561872909
2022-12-31T00:37:33.828Z,4.608695652173913
2022-12-31T00:43:53.842Z,4.709030100334449
2022-12-31T01:01:01.179Z,5.494983277591973
2022-12-31T01:12:58.557Z,4.304347826086956
2022-12-31T01:19:51.515Z,4.672240802675585
2022-12-31T01:26:11.289Z,4.381270903010034
2022-12-31T01:32:30.445Z,3.983277591973244
2022-12-31T01:38:49.266Z,4.096989966555184
2022-12-31T01:45:08.294Z,3.762541806020067
2022-12-31T01:51:27.588Z,3.9899665551839463
2022-12-31T02:02:22.642Z,3.096989966555184
2022-12-31T02:08:42.565Z,3.0066889632107023
2022-12-31T02:15:01.925Z,2.9565217391304346
2022-12-31T02:21:21.000Z,2.9565217391304346
2022-12-31T02:27:40.876Z,2.387959866220736
2022-12-31T02:34:00.967Z,1.839464882943144
2022-12-31T02:40:20.724Z,1.2709030100334449
2022-12-31T02:46:40.394Z,1.2809364548494984
2022-12-31T02:52:59.345Z,1.5785953177257526
2022-12-31T02:59:17.722Z,1.826086956521739
2022-12-31T03:11:47.821Z,1.5351170568561874
2022-12-31T03:18:07.231Z,1.5317725752508362
2022-12-31T03:24:27.053Z,1.4882943143812708
2022-12-31T03:30:46.011Z,1.3043478260869565
2022-12-31T03:37:04.746Z,1.351170568561873
2022-12-31T03:47:53.275Z,0.4214046822742475
2022-12-31T03:54:13.600Z,0.09698996655518395
2022-12-31T04:00:32.766Z,0.06354515050167224
2022-12-31T04:06:51.711Z,0.0
2022-12-31T04:13:10.431Z,0.016722408026755852
2022-12-31T04:25:19.595Z,0.0
2022-12-31T04:31:38.479Z,0.0
2022-12-31T04:47:57.625Z,0.0
2022-12-31T04:54:16.534Z,0.016722408026755852
2022-12-31T05:00:35.318Z,0.0
2022-12-31T05:13:07.713Z,0.0
2022-12-31T05:19:27.550Z,0.0
2022-12-31T05:31:21.845Z,0.006688963210702341
2022-12-31T05:40:42.208Z,0.0
2022-12-31T05:47:25.536Z,0.0
2022-12-31T05:53:45.092Z,0.07023411371237458
2022-12-31T06:00:04.589Z,0.0903010033444816
2022-12-31T06:12:40.571Z,0.0
2022-12-31T06:19:00.006Z,0.04013377926421405
2022-12-31T06:25:19.702Z,0.07023411371237458
2022-12-31T06:35:37.160Z,0.04013377926421405
2022-12-31T06:41:56.177Z,0.030100334448160536
2022-12-31T06:48:17.078Z,0.0033444816053511705
2022-12-31T06:54:36.661Z,0.0
2022-12-31T07:00:56.176Z,0.010033444816053512
2022-12-31T07:07:16.688Z,0.033444816053511704
2022-12-31T07:18:36.619Z,0.3010033444816054
2022-12-31T07:24:55.855Z,0.3712374581939799
2022-12-31T07:43:32.561Z,0.6956521739130435
2022-12-31T07:49:52.146Z,1.5752508361204014
2022-12-31T07:56:10.801Z,1.5418060200668897
2022-12-31T08:02:30.076Z,1.0836120401337792
2022-12-31T08:08:49.213Z,1.8294314381270902
2022-12-31T08:15:09.481Z,1.8561872909698998
2022-12-31T08:21:34.851Z,3.8929765886287626
2022-12-31T08:27:57.299Z,2.963210702341137
2022-12-31T08:34:19.940Z,1.9096989966555185
2022-12-31T08:43:51.306Z,1.605351170568562
2022-12-31T08:50:13.121Z,1.1237458193979932
2022-12-31T08:56:34.923Z,1.568561872909699
2022-12-31T09:04:58.186Z,1.1304347826086956
2022-12-31T09:11:23.275Z,0.939799331103679
2022-12-31T09:21:20.687Z,0.7224080267558528
2022-12-31T09:27:43.181Z,0.30434782608695654
2022-12-31T09:34:08.291Z,0.033444816053511704
2022-12-31T09:46:12.192Z,0.06354515050167224
2022-12-31T09:52:33.808Z,0.14046822742474915
2022-12-31T09:58:55.152Z,0.030100334448160536
2022-12-31T10:05:17.426Z,0.010033444816053512
2022-12-31T10:11:39.284Z,0.09364548494983277
2022-12-31T10:18:01.626Z,0.046822742474916385
2022-12-31T10:24:23.949Z,0.0
2022-12-31T10:30:45.951Z,0.0
2022-12-31T10:37:08.599Z,0.010033444816053512
2022-12-31T10:43:31.674Z,0.020066889632107024
2022-12-31T10:49:53.403Z,0.033444816053511704
2022-12-31T10:56:19.444Z,0.43478260869565216
2022-12-31T11:02:43.906Z,0.0033444816053511705
2022-12-31T11:09:12.343Z,0.0
2022-12-31T11:15:34.357Z,0.06020066889632107
2022-12-31T11:21:55.987Z,0.0
2022-12-31T11:28:20.865Z,0.0
2022-12-31T11:34:42.824Z,0.006688963210702341
2022-12-31T11:47:08.610Z,0.0
2022-12-31T11:56:20.165Z,0.0
2022-12-31T12:02:42.291Z,0.0
2022-12-31T12:09:04.552Z,0.0
2022-12-31T12:15:27.083Z,0.013377926421404682
2022-12-31T12:21:49.539Z,0.03678929765886288
2022-12-31T12:28:11.171Z,0.14381270903010032
2022-12-31T12:34:34.321Z,0.411371237458194
2022-12-31T12:40:56.042Z,0.23076923076923078
2022-12-31T12:47:18.350Z,0.23745819397993312
2022-12-31T12:53:41.121Z,0.13377926421404682
2022-12-31T13:00:25.747Z,0.5652173913043478
2022-12-31T13:13:23.224Z,0.42474916387959866
2022-12-31T13:20:49.862Z,0.6120401337792643
2022-12-31T13:27:12.518Z,0.18729096989966554
2022-12-31T13:33:35.667Z,0.16387959866220736
2022-12-31T13:39:57.144Z,0.2608695652173913
2022-12-31T13:46:17.517Z,0.25752508361204013
2022-12-31T13:52:39.214Z,0.2608695652173913
2022-12-31T13:59:00.536Z,0.6588628762541806
2022-12-31T14:15:20.485Z,0.030100334448160536
2022-12-31T14:21:41.633Z,0.1939799331103679
2022-12-31T14:28:06.028Z,0.13043478260869565
2022-12-31T14:37:11.801Z,0.8494983277591973
2022-12-31T14:43:32.120Z,1.9297658862876255
2022-12-31T14:49:50.681Z,1.4882943143812708
2022-12-31T14:56:10.897Z,2.57190635451505
2022-12-31T15:02:30.754Z,10.294314381270903
2022-12-31T15:08:50.215Z,5.862876254180602
2022-12-31T15:15:10.015Z,5.866220735785953
2022-12-31T15:22:47.698Z,4.491638795986622
2022-12-31T15:29:07.492Z,10.207357859531772
2022-12-31T15:35:26.725Z,4.083612040133779
2022-12-31T15:42:18.624Z,5.224080267558528
2022-12-31T15:49:00.467Z,4.103678929765886
2022-12-31T15:55:23.389Z,1.8963210702341138
2022-12-31T16:01:43.628Z,3.5150501672240804
2022-12-31T16:08:03.543Z,2.297658862876254
2022-12-31T16:17:15.166Z,2.9130434782608696
2022-12-31T16:23:40.498Z,4.474916387959866
2022-12-31T16:30:01.869Z,3.0100334448160537
2022-12-31T16:36:22.129Z,3.9498327759197323
2022-12-31T16:42:44.518Z,2.8561872909698995
2022-12-31T16:50:07.253Z,3.4347826086956523
2022-12-31T16:56:50.914Z,3.0066889632107023
2022-12-31T17:05:59.509Z,2.531772575250836
2022-12-31T17:17:41.274Z,2.839464882943144
2022-12-31T17:24:11.642Z,3.301003344481605
2022-12-31T17:38:30.520Z,10.264214046822742
2022-12-31T17:44:50.876Z,7.709030100334449
2022-12-31T17:51:10.122Z,6.197324414715719
2022-12-31T17:57:30.140Z,10.421404682274247
2022-12-31T18:03:49.548Z,7.1404682274247495
2022-12-31T18:10:10.255Z,12.217391304347826
2022-12-31T18:16:29.703Z,12.020066889632107
2022-12-31T18:22:49.488Z,12.25418060200669
2022-12-31T18:40:41.397Z,17.19732441471572
2022-12-31T18:52:15.400Z,7.632107023411371
2022-12-31T18:59:17.668Z,8.177257525083611
2022-12-31T19:05:36.986Z,5.046822742474917
2022-12-31T19:11:56.603Z,5.545150501672241
2022-12-31T19:18:16.625Z,4.88628762541806
2022-12-31T19:24:36.320Z,4.25752508361204
2022-12-31T19:36:38.651Z,16.73913043478261
2022-12-31T19:45:06.053Z,8.675585284280936
2022-12-31T19:51:25.904Z,10.792642140468228
2022-12-31T19:57:45.043Z,14.675585284280936
2022-12-31T20:04:04.371Z,6.367892976588629
2022-12-31T20:14:10.095Z,4.3244147157190636
2022-12-31T20:20:29.915Z,8.451505016722408
2022-12-31T20:26:49.006Z,7.337792642140468
2022-12-31T20:36:07.631Z,7.043478260869565
2022-12-31T20:42:27.346Z,6.956521739130435
2022-12-31T20:49:31.358Z,6.431438127090301
2022-12-31T20:56:12.271Z,8.307692307692308
2022-12-31T21:04:41.207Z,5.190635451505017
2022-12-31T21:12:35.845Z,4.133779264214047
2022-12-31T21:18:54.666Z,7.3244147157190636
2022-12-31T21:25:14.260Z,8.551839464882944
2022-12-31T21:37:58.880Z,5.916387959866221
2022-12-31T21:50:21.949Z,11.779264214046822
2022-12-31T21:56:40.927Z,7.575250836120401
2022-12-31T22:07:52.507Z,6.197324414715719
2022-12-31T22:14:11.227Z,3.983277591973244
2022-12-31T22:20:30.554Z,3.5819397993311037
2022-12-31T22:30:11.576Z,4.959866220735786
2022-12-31T22:36:30.221Z,4.561872909698996
2022-12-31T22:42:49.248Z,8.046822742474916
2022-12-31T22:49:07.945Z,7.1438127090301
2022-12-31T22:55:27.084Z,24.096989966555185
2022-12-31T23:01:47.582Z,34.68896321070234
2022-12-31T23:14:54.103Z,85.90969899665552
2022-12-31T23:28:44.438Z,68.5752508361204
2022-12-31T23:35:09.573Z,34.87290969899666
2022-12-31T23:42:52.920Z,22.63545150501672
2022-12-31T23:53:31.997Z,17.36454849498328
2022-12-31T23:59:51.373Z,19.94983277591973
